»·PEaware :: AAL186 KJAC-KEGE

AAL186 :: KJAC-KEGE

FLIGHT INFORMATION

Flight Status: Arrived
Operator:
American Airlines
More flights by this operator :: More flights under this callsign
Pilot: Josh G. (4619)
Aircraft: AIRBUS A320
(A320)
More flights by this aircraft type
Origin: KJAC Jackson Hole
United States
Destination: KEGE Eagle Co Regl
United States
More flights between these airports :: More routes between these airports
Route: ALPIN2 KICNE RLG
File this flight plan on PilotEdge
Remarks:
Altitude:
(Current/Filed)
350ft
Speed:
(Current/Filed)
320kts
Departed: 13-Jan-18 07:23 PM
Arrived: 13-Jan-18 08:29 PM
Distance/Time
Traveled:
293nm/1:06
Distance/Time
To Go:
Arrived

Flight Plot

Page will automatically refresh every two minutes.

Flight plan parsing failed; only flown route is shown


Map Options




Map Legend


Flown Route
Filed Route
Departure Airport
Arrival Airport
Navaid (VOR, NDB)
Fix

Horizontal Profiles

Position Reports

Time Latitude Longitude Heading Altitude Ground
Speed
13-Jan-18 18:58 43.604650 -110.736503 109 6429ft 0kts
13-Jan-18 18:59 43.604650 -110.736503 109 6429ft 0kts
13-Jan-18 19:00 43.604650 -110.736503 109 6429ft 0kts
13-Jan-18 19:01 43.604650 -110.736503 109 6429ft 0kts
13-Jan-18 19:02 43.604650 -110.736503 109 6429ft 0kts
13-Jan-18 19:03 43.604650 -110.736503 109 6429ft 0kts
13-Jan-18 19:04 43.604650 -110.736503 109 6429ft 0kts
13-Jan-18 19:05 43.604650 -110.736503 109 6429ft 0kts
13-Jan-18 19:06 43.604650 -110.736503 109 6429ft 0kts
13-Jan-18 19:07 43.604650 -110.736503 109 6429ft 0kts
13-Jan-18 19:08 43.604650 -110.736503 109 6429ft 0kts
13-Jan-18 19:09 43.604650 -110.736503 109 6429ft 0kts
13-Jan-18 19:10 43.604650 -110.736503 109 6429ft 0kts
13-Jan-18 19:11 43.604650 -110.736503 109 6429ft 0kts
13-Jan-18 19:12 43.604650 -110.736503 109 6429ft 0kts
13-Jan-18 19:13 43.604650 -110.736503 109 6429ft 0kts
13-Jan-18 19:14 43.604650 -110.736503 109 6429ft 0kts
13-Jan-18 19:15 43.604650 -110.736503 109 6429ft 0kts
13-Jan-18 19:16 43.604650 -110.736503 109 6429ft 0kts
13-Jan-18 19:17 43.604650 -110.736503 109 6429ft 0kts
13-Jan-18 19:18 43.604650 -110.736503 109 6429ft 0kts
13-Jan-18 19:19 43.604650 -110.736503 109 6429ft 0kts
13-Jan-18 19:20 43.604650 -110.736503 109 6429ft 0kts
13-Jan-18 19:21 43.604663 -110.736565 82 6429ft 1kts
13-Jan-18 19:22 43.604700 -110.737265 69 6429ft 2kts
13-Jan-18 19:23 43.604417 -110.737646 18 6429ft 1kts
13-Jan-18 19:24 43.604405 -110.737651 19 6429ft 0kts
13-Jan-18 19:25 43.607114 -110.736273 19 6429ft 17kts
13-Jan-18 19:26 43.611084 -110.734314 19 6429ft 22kts
13-Jan-18 19:27 43.613982 -110.732173 331 6429ft 0kts
13-Jan-18 19:28 43.615111 -110.733964 201 6429ft 0kts
13-Jan-18 19:29 43.585000 -110.748780 199 7379ft 197kts
13-Jan-18 19:30 43.530433 -110.782808 204 9955ft 242kts
13-Jan-18 19:31 43.461084 -110.828997 205 11754ft 317kts
13-Jan-18 19:32 43.374661 -110.885115 197 13829ft 358kts
13-Jan-18 19:33 43.286717 -110.839980 130 16235ft 369kts
13-Jan-18 19:34 43.211550 -110.730284 131 17672ft 412kts
13-Jan-18 19:35 43.133375 -110.615121 129 19825ft 426kts
13-Jan-18 19:36 43.050294 -110.497295 132 21682ft 441kts
13-Jan-18 19:37 42.964196 -110.375545 132 23389ft 455kts
13-Jan-18 19:38 42.876136 -110.250526 133 24889ft 467kts
13-Jan-18 19:39 42.786109 -110.123187 133 26194ft 478kts
13-Jan-18 19:40 42.693446 -109.992709 133 27417ft 488kts
13-Jan-18 19:41 42.598520 -109.859672 134 28557ft 498kts
13-Jan-18 19:42 42.501561 -109.724399 134 29610ft 507kts
13-Jan-18 19:43 42.402393 -109.586721 134 30594ft 515kts
13-Jan-18 19:44 42.302326 -109.448443 134 31838ft 514kts
13-Jan-18 19:45 42.204269 -109.313603 135 32971ft 514kts
13-Jan-18 19:46 42.107816 -109.171859 126 33967ft 515kts
13-Jan-18 19:47 42.025818 -109.016147 125 34946ft 514kts
13-Jan-18 19:48 41.942320 -108.859752 125 35489ft 520kts
13-Jan-18 19:49 41.860107 -108.704292 124 35519ft 525kts
13-Jan-18 19:50 41.777228 -108.544789 124 35521ft 526kts
13-Jan-18 19:51 41.693683 -108.384090 124 35526ft 527kts
13-Jan-18 19:52 41.611406 -108.229836 125 35496ft 529kts
13-Jan-18 19:53 41.522799 -108.072614 124 35422ft 531kts
13-Jan-18 19:54 41.434610 -107.914934 124 35450ft 533kts
13-Jan-18 19:55 41.347797 -107.759374 124 35545ft 533kts
13-Jan-18 19:56 41.260886 -107.603519 124 35570ft 534kts
13-Jan-18 19:57 41.188160 -107.473021 124 35565ft 534kts
13-Jan-18 19:58 41.100567 -107.315676 124 35539ft 534kts
13-Jan-18 19:59 41.013651 -107.158957 124 35524ft 534kts
13-Jan-18 20:00 40.926502 -107.001671 124 35547ft 533kts
13-Jan-18 20:01 40.831479 -106.860714 146 35458ft 535kts
13-Jan-18 20:02 40.699900 -106.798446 179 35549ft 517kts
13-Jan-18 20:03 40.565179 -106.779311 180 35462ft 515kts
13-Jan-18 20:04 40.425169 -106.759439 183 35453ft 512kts
13-Jan-18 20:05 40.294708 -106.793994 210 34042ft 482kts
13-Jan-18 20:06 40.170659 -106.855207 210 33547ft 490kts
13-Jan-18 20:07 40.049463 -106.918462 220 31742ft 473kts
13-Jan-18 20:08 39.969288 -107.035838 258 29022ft 419kts
13-Jan-18 20:09 39.969735 -107.170608 301 27543ft 364kts
13-Jan-18 20:10 40.046335 -107.246311 345 27523ft 364kts
13-Jan-18 20:11 40.145271 -107.210096 30 27522ft 412kts
13-Jan-18 20:12 40.220876 -107.094573 40 27175ft 420kts
13-Jan-18 20:13 40.292824 -106.979103 40 25068ft 408kts
13-Jan-18 20:14 40.344223 -106.851590 82 23079ft 441kts
13-Jan-18 20:15 40.283275 -106.717766 144 21141ft 438kts
13-Jan-18 20:16 40.199848 -106.633032 129 20140ft 348kts
13-Jan-18 20:17 40.175858 -106.518521 99 17553ft 329kts
13-Jan-18 20:18 40.159488 -106.405384 99 15028ft 318kts
13-Jan-18 20:19 40.143548 -106.297946 100 13703ft 312kts
13-Jan-18 20:20 40.128138 -106.193404 99 13595ft 313kts
13-Jan-18 20:21 40.068623 -106.129506 190 13710ft 308kts
13-Jan-18 20:22 40.026995 -106.201530 262 13833ft 254kts
13-Jan-18 20:23 40.017842 -106.292450 264 13710ft 260kts
13-Jan-18 20:24 40.008436 -106.386024 264 13591ft 263kts
13-Jan-18 20:25 39.970250 -106.456850 198 13074ft 269kts
13-Jan-18 20:26 39.899391 -106.486252 199 12941ft 261kts
13-Jan-18 20:27 39.835261 -106.513065 199 12835ft 248kts
13-Jan-18 20:28 39.775247 -106.538203 199 12470ft 229kts
13-Jan-18 20:29 39.715708 -106.563434 205 12045ft 228kts
13-Jan-18 20:30 39.696804 -106.633433 258 10935ft 215kts
13-Jan-18 20:31 39.686714 -106.705734 255 10365ft 208kts
13-Jan-18 20:32 39.672337 -106.775306 254 9215ft 183kts
13-Jan-18 20:33 39.656772 -106.829853 245 7924ft 156kts
13-Jan-18 20:34 39.646117 -106.885601 260 6808ft 160kts
13-Jan-18 20:35 39.641696 -106.922705 205 6553ft 8kts
13-Jan-18 20:36 39.641359 -106.918136 83 6553ft 24kts

Navigation Log

Ident Type
Flight plan parsing failed, navigation log unavailable